Latest Weather Observations for Paraburdoo

IDW60801

Issued at 10:03 pm WST Sunday 19 April 2015 (issued every 30 minutes, with the page automatically refreshed every 10 minutes)

About weather observations | Map of weather stations | Latest weather observations for WA | Other Formats
Station Details ID: 007185 Name: PARABURDOO AERO Lat: -23.17 Lon: 117.75 Height: 423.7 m
Data from the previous 72 hours. | See also: Recent months at Paraburdoo
Date/Time
WST
Temp
°C
App
Temp
°C
Dew
Point
Rel
Hum
%
Delta-T
°C
Wind Press
QNH
hPa
Press
MSL
hPa
Rain
since 9 am
mm
Dir
 
Spd
km/h
Gust
km/h
Spd
kts
Gust
kts
19/10:00pm 19.7 17.5 13.2 66 3.8 E 17 28 9 15 1020.8 1018.2 0.0
19/09:30pm 19.5 18.2 13.7 69 3.4 ENE 13 20 7 11 1020.9 1018.3 0.0
19/09:00pm 19.5 16.6 14.1 71 3.2 ENE 22 35 12 19 1020.7 1018.1 0.0
19/08:30pm 19.6 15.2 14.0 70 3.3 ENE 30 41 16 22 1020.9 1018.3 0.0
19/08:00pm 19.4 16.9 14.2 72 3.1 ENE 20 28 11 15 1021.2 1018.5 0.0
19/07:30pm 19.5 16.2 14.1 71 3.2 ENE 24 33 13 18 1020.7 1018.1 0.0
19/07:00pm 19.6 17.0 15.0 75 2.7 ENE 22 30 12 16 1020.4 1017.8 0.0
19/06:30pm 19.4 19.1 16.4 83 1.8 E 13 20 7 11 1020.7 1018.1 0.0
19/06:00pm 19.4 17.6 17.0 86 1.5 E 22 30 12 16 1020.1 1017.4 0.0
19/05:30pm 19.1 18.0 17.2 89 1.2 E 19 26 10 14 1019.9 1017.2 0.0
19/05:00pm 19.0 17.6 17.1 89 1.2 E 20 30 11 16 1019.7 1017.0 0.0
19/04:30pm 19.1 17.7 16.5 85 1.6 E 19 28 10 15 1019.8 1017.1 0.0
19/04:00pm 19.1 17.3 16.1 83 1.8 E 20 26 11 14 1019.6 1016.9 0.0
19/03:30pm 19.3 17.9 15.6 79 2.2 E 17 24 9 13 1019.4 1016.7 0.0
19/03:00pm 19.3 18.0 15.8 80 2.1 E 17 20 9 11 1019.5 1016.8 0.0
19/02:30pm 19.4 16.4 14.9 75 2.7 ENE 24 33 13 18 1019.7 1017.0 0.0
19/02:00pm 19.8 17.0 14.2 70 3.3 ENE 22 30 12 16 1019.5 1016.8 0.0
19/01:30pm 19.9 15.3 13.6 67 3.7 ENE 30 44 16 24 1019.6 1016.9 0.0
19/01:00pm 20.3 16.7 13.0 63 4.2 ENE 24 39 13 21 1020.0 1017.3 0.0
19/12:30pm 20.7 15.7 12.1 58 4.9 ENE 30 41 16 22 1020.1 1017.4 0.0
19/12:00pm 21.0 18.0 12.7 59 4.8 ENE 20 30 11 16 1020.2 1017.6 0.0
19/11:30am 20.9 17.9 12.6 59 4.8 ENE 20 30 11 16 1020.3 1017.7 0.0
19/11:00am 19.6 18.2 13.5 68 3.5 E 13 15 7 8 1020.6 1018.0 0.0
19/10:30am 19.9 15.9 11.7 59 4.6 ENE 24 35 13 19 1020.6 1018.0 0.0
19/10:00am 20.5 16.6 10.9 54 5.3 ENE 22 33 12 18 1020.5 1017.9 0.0
19/09:30am 20.6 17.5 10.4 52 5.6 E 17 26 9 14 1020.7 1018.1 0.0
19/09:00am 20.1 16.8 10.8 55 5.2 ENE 19 24 10 13 1020.4 1017.8 12.4
19/08:30am 19.3 16.3 10.8 58 4.7 ENE 17 24 9 13 1020.1 1017.4 12.4
19/08:00am 19.4 15.8 10.7 57 4.8 ENE 20 30 11 16 1019.9 1017.2 12.4
19/07:30am 20.1 19.7 9.9 52 5.6 ENE 2 9 1 5 1019.8 1017.1 12.4
19/07:00am 20.1 16.6 10.2 53 5.4 ENE 19 28 10 15 1019.0 1016.3 12.4
19/06:30am 20.1 17.7 9.9 52 5.6 ENE 13 19 7 10 1018.6 1015.9 12.4
19/06:00am 20.1 17.3 9.9 52 5.6 ENE 15 24 8 13 1017.8 1015.1 12.4
19/05:30am 19.6 18.3 11.1 58 4.7 E 9 15 5 8 1017.7 1015.0 12.4
19/05:00am 19.4 17.5 11.9 62 4.2 ENE 13 20 7 11 1017.6 1014.9 12.4
19/04:30am 19.2 17.1 12.5 65 3.8 E 15 20 8 11 1017.3 1014.6 12.4
19/04:00am 19.6 17.4 12.1 62 4.3 ESE 15 20 8 11 1017.4 1014.7 12.4
19/03:30am 19.4 18.4 12.2 63 4.1 E 9 13 5 7 1017.6 1014.9 12.4
19/03:00am 19.8 18.3 11.8 60 4.5 E 11 17 6 9 1017.5 1014.8 12.4
19/02:30am 19.6 17.6 12.6 64 4.0 E 15 19 8 10 1017.5 1014.8 12.4
19/02:00am 19.0 18.0 14.7 76 2.5 ENE 13 17 7 9 1018.2 1015.6 12.4
19/01:30am 18.8 19.5 16.0 84 1.7 ENE 7 11 4 6 1018.8 1016.1 12.4
19/01:00am 18.6 19.2 16.8 89 1.1 E 9 13 5 7 1018.8 1016.1 12.4
19/12:30am 18.7 17.8 16.8 89 1.2 ENE 17 19 9 10 1018.9 1016.2 12.4
19/12:00am 18.6 17.6 17.6 94 0.6 NE 19 26 10 14 1019.0 1016.3 12.4
 
Date/Time
WST
Temp
°C
App
Temp
°C
Dew
Point
Rel
Hum
%
Delta-T
°C
Wind Press
QNH
hPa
Press
MSL
hPa
Rain
since 9 am
mm
Dir
 
Spd
km/h
Gust
km/h
Spd
kts
Gust
kts
18/11:30pm 19.1 17.7 16.5 85 1.6 ENE 19 26 10 14 1019.4 1016.7 12.4
18/11:00pm 19.3 19.3 19.0 98 0.2 ENE 17 22 9 12 1019.7 1017.0 12.4
18/10:30pm 19.2 19.2 18.9 98 0.2 E 17 20 9 11 1019.9 1017.2 12.4
18/10:00pm 19.1 19.1 18.9 99 0.1 ESE 17 22 9 12 1020.2 1017.6 12.4
18/09:30pm 19.1 19.5 18.9 99 0.1 ESE 15 20 8 11 1020.4 1017.8 12.4
18/09:00pm 19.0 20.5 18.8 99 0.1 E 9 15 5 8 1020.3 1017.7 12.4
18/08:30pm 18.9 19.6 18.9 100 0.0 ENE 13 15 7 8 1020.3 1017.7 12.4
18/08:00pm 18.8 19.1 18.8 100 0.0 ENE 15 19 8 10 1020.2 1017.6 12.4
18/07:30pm 18.7 20.1 18.7 100 0.0 E 9 11 5 6 1020.0 1017.3 12.0
18/07:00pm 18.7 20.5 18.7 100 0.0 ENE 7 11 4 6 1019.7 1017.0 11.8
18/06:30pm 18.8 20.2 18.6 99 0.1 ENE 9 13 5 7 1019.5 1016.8 11.2
18/06:00pm 18.9 19.9 18.7 99 0.1 ENE 11 15 6 8 1019.2 1016.5 11.0
18/05:30pm 19.0 19.7 18.8 99 0.1 ENE 13 17 7 9 1018.8 1016.1 10.8
18/05:00pm 18.9 19.9 18.7 99 0.1 ENE 11 15 6 8 1018.6 1015.9 10.8
18/04:45pm 18.9 19.9 18.7 99 0.1 ENE 11 17 6 9 1018.4 1015.8 10.8
18/04:30pm 18.9 20.0 18.9 100 0.0 ENE 11 15 6 8 1018.3 1015.7 10.8
18/04:12pm 18.8 19.5 18.8 100 0.0 ENE 13 15 7 8 1018.4 1015.8 10.4
18/04:00pm 18.8 19.8 18.6 99 0.1 E 11 15 6 8 1018.6 1015.9 10.4
18/03:30pm 18.6 19.1 18.4 99 0.1 ENE 13 17 7 9 1018.4 1015.8 10.0
18/03:00pm 18.8 19.4 18.6 99 0.1 E 13 19 7 10 1018.4 1015.8 9.4
18/02:30pm 19.1 19.8 18.9 99 0.1 E 13 15 7 8 1018.2 1015.6 8.8
18/02:00pm 19.1 20.2 18.9 99 0.1 E 11 15 6 8 1018.3 1015.7 8.2
18/01:30pm 19.0 19.7 18.8 99 0.1 ESE 13 15 7 8 1018.6 1015.9 7.6
18/01:11pm 19.4 21.0 19.2 99 0.1 SE 9 17 5 9 1018.7 1016.0 7.0
18/01:00pm 19.6 21.7 19.4 99 0.1 ESE 7 9 4 5 1018.9 1016.2 6.0
18/12:58pm 19.7 21.9 19.5 99 0.1 E 7 9 4 5 1018.9 1016.2 6.0
18/12:45pm 19.7 21.1 19.5 99 0.1 ENE 11 13 6 7 1019.0 1016.3 4.8
18/12:30pm 19.9 22.3 19.6 98 0.2 ENE 6 9 3 5 1019.3 1016.6 3.6
18/12:27pm 20.0 22.4 19.7 98 0.2 ENE 6 9 3 5 1019.3 1016.6 3.4
18/12:00pm 20.3 22.3 20.0 98 0.2 E 9 11 5 6 1019.0 1016.3 2.2
18/11:30am 20.4 21.7 20.2 99 0.1 ESE 13 17 7 9 1019.0 1016.3 1.2
18/11:00am 21.1 23.1 20.8 98 0.2 E 11 13 6 7 1019.4 1016.7 1.0
18/10:30am 21.0 23.0 20.7 98 0.2 ESE 11 13 6 7 1019.8 1017.1 0.8
18/10:00am 21.3 23.6 19.8 91 1.0 SSE 7 9 4 5 1020.0 1017.3 0.2
18/09:30am 21.1 23.6 20.3 95 0.5 SSE 7 9 4 5 1019.9 1017.2 0.2
18/09:00am 20.8 22.8 19.1 90 1.1 E 7 11 4 6 1019.8 1017.1 0.2
18/08:30am 20.8 23.0 20.5 98 0.2 NE 9 13 5 7 1019.5 1016.8 0.2
18/08:00am 20.6 22.4 20.3 98 0.2 NE 11 11 6 6 1019.2 1016.5 0.2
18/07:30am 20.4 22.4 19.9 97 0.3 NNE 9 13 5 7 1018.8 1016.1 0.0
18/07:00am 20.3 22.7 20.0 98 0.2 ENE 7 9 4 5 1018.4 1015.8 0.0
18/06:30am 20.9 21.9 17.7 82 2.0 ENE 9 11 5 6 1017.8 1015.1 0.0
18/06:00am 21.2 21.6 17.2 78 2.5 ENE 11 15 6 8 1017.7 1015.0 0.0
18/05:30am 21.1 21.7 17.7 81 2.1 ENE 11 15 6 8 1017.4 1014.7 0.0
18/05:00am 21.4 21.1 17.4 78 2.5 ENE 15 20 8 11 1017.1 1014.4 0.0
18/04:30am 21.5 22.7 18.3 82 2.0 ENE 9 13 5 7 1016.8 1014.1 0.0
18/04:00am 21.3 22.2 18.5 84 1.8 E 11 15 6 8 1016.5 1013.8 0.0
18/03:30am 21.2 22.6 19.5 90 1.1 ENE 11 13 6 7 1016.7 1014.0 0.0
18/03:00am 21.2 22.7 18.8 86 1.5 E 9 11 5 6 1017.0 1014.3 0.0
18/02:30am 21.2 22.4 19.1 88 1.3 ENE 11 17 6 9 1017.0 1014.3 0.0
18/02:00am 21.5 23.5 19.2 87 1.5 NNE 7 9 4 5 1017.3 1014.6 0.0
18/01:30am 20.9 21.9 17.7 82 2.0 E 9 11 5 6 1017.1 1014.4 0.0
18/01:00am 21.3 22.2 18.5 84 1.8 NE 11 17 6 9 1017.2 1014.5 0.0
18/12:30am 21.3 22.2 18.5 84 1.8 ENE 11 15 6 8 1017.4 1014.7 0.0
18/12:00am 21.5 22.8 19.2 87 1.5 ENE 11 13 6 7 1017.5 1014.8 0.0
 
Date/Time
WST
Temp
°C
App
Temp
°C
Dew
Point
Rel
Hum
%
Delta-T
°C
Wind Press
QNH
hPa
Press
MSL
hPa
Rain
since 9 am
mm
Dir
 
Spd
km/h
Gust
km/h
Spd
kts
Gust
kts
17/11:30pm 21.4 22.8 19.5 89 1.2 ENE 11 15 6 8 1017.6 1014.9 0.0
17/11:00pm 21.4 23.5 20.2 93 0.8 ENE 9 13 5 7 1017.9 1015.2 0.0
17/10:30pm 21.5 23.9 20.1 92 0.9 E 7 9 4 5 1018.4 1015.8 0.0
17/10:00pm 21.9 24.0 19.3 85 1.7 E 7 9 4 5 1018.4 1015.8 0.0
17/09:30pm 21.9 25.0 19.5 86 1.6 NW 2 7 1 4 1018.6 1015.9 0.0
17/09:00pm 22.1 23.3 19.1 83 1.9 NNW 11 13 6 7 1018.8 1016.1 0.0
17/08:30pm 22.5 23.2 18.9 80 2.3 NNW 13 17 7 9 1018.8 1016.1 0.0
17/08:00pm 22.7 24.1 19.5 82 2.1 NNW 11 13 6 7 1018.7 1016.0 0.0
17/07:30pm 23.2 24.8 20.0 82 2.1 NNW 11 15 6 8 1018.4 1015.8 0.0
17/07:00pm 23.4 26.1 21.3 88 1.4 N 9 13 5 7 1018.0 1015.3 0.0
17/06:30pm 23.9 25.4 20.6 82 2.2 N 13 17 7 9 1017.5 1014.8 0.0
17/06:00pm 24.5 26.0 17.5 65 4.4 ESE 6 9 3 5 1016.9 1014.2 0.0
17/05:30pm 25.2 27.4 16.6 59 5.4 CALM 0 0 0 0 1016.4 1013.7 0.0
17/05:00pm 25.7 27.7 16.0 55 6.0 CALM 0 0 0 0 1016.1 1013.4 0.0
17/04:30pm 25.9 27.9 15.9 54 6.2 CALM 0 0 0 0 1016.2 1013.5 0.0
17/04:00pm 25.9 26.7 15.9 54 6.2 SSE 6 7 3 4 1016.2 1013.5 0.0
17/03:30pm 25.6 25.9 15.9 55 6.0 SE 9 13 5 7 1016.2 1013.5 0.0
17/03:00pm 25.8 26.4 15.8 54 6.2 SE 7 11 4 6 1016.1 1013.4 0.0
17/02:30pm 25.7 25.7 16.3 56 5.9 E 11 15 6 8 1015.8 1013.1 0.0
17/02:00pm 25.5 25.0 15.8 55 6.0 E 13 19 7 10 1016.2 1013.5 0.0
17/01:30pm 25.5 25.3 15.8 55 6.0 SE 11 17 6 9 1016.5 1013.8 0.0
17/01:00pm 24.8 23.6 15.1 54 5.9 ESE 15 20 8 11 1016.7 1014.0 0.0
17/12:30pm 24.7 23.6 15.3 56 5.8 E 15 19 8 10 1017.0 1014.3 0.0
17/12:00pm 25.0 23.9 15.3 55 5.9 ESE 15 20 8 11 1017.5 1014.8 0.0
17/11:30am 25.2 23.1 15.2 54 6.1 E 20 28 11 15 1017.8 1015.1 0.0
17/11:00am 25.3 23.2 15.3 54 6.1 ENE 20 26 11 14 1018.3 1015.7 0.0
17/10:30am 24.8 21.9 15.1 54 5.9 ENE 24 35 13 19 1018.7 1016.0 0.0
17/10:00am 24.6 21.7 15.2 55 5.7 ENE 24 30 13 16 1018.8 1016.1 0.0
17/09:30am 23.8 21.7 15.3 59 5.2 ENE 20 30 11 16 1019.0 1016.3 0.0
17/09:00am 22.9 20.3 15.0 61 4.8 ENE 22 30 12 16 1019.2 1016.5 0.0
17/08:30am 22.3 19.3 14.9 63 4.5 ENE 24 33 13 18 1019.4 1016.7 0.0
17/08:00am 22.1 20.0 14.7 63 4.4 ENE 19 26 10 14 1019.5 1016.8 0.0
17/07:30am 21.6 20.6 14.7 65 4.1 ENE 13 24 7 13 1019.3 1016.6 0.0
17/07:00am 21.4 20.5 14.8 66 4.0 E 13 19 7 10 1019.0 1016.3 0.0
17/06:30am 21.4 19.7 14.8 66 4.0 E 17 24 9 13 1019.1 1016.4 0.0
17/06:00am 21.4 19.1 14.6 65 4.1 E 20 30 11 16 1018.8 1016.1 0.0
17/05:30am 22.1 21.0 15.2 65 4.2 E 15 20 8 11 1018.8 1016.1 0.0
17/05:00am 21.6 19.3 14.7 65 4.1 E 20 30 11 16 1018.3 1015.7 0.0
17/04:30am 21.8 18.8 14.7 64 4.3 E 24 33 13 18 1018.2 1015.6 0.0
17/04:00am 21.8 19.5 14.7 64 4.3 E 20 28 11 15 1018.0 1015.3 0.0
17/03:30am 21.9 19.8 14.8 64 4.3 ESE 19 30 10 16 1018.2 1015.6 0.0
17/03:00am 22.1 20.0 14.7 63 4.4 ESE 19 28 10 15 1018.3 1015.7 0.0
17/02:30am 22.3 20.1 14.9 63 4.5 ESE 20 28 11 15 1018.2 1015.6 0.0
17/02:00am 22.5 19.5 14.9 62 4.6 ESE 24 32 13 17 1018.4 1015.8 0.0
17/01:30am 22.7 20.5 15.0 61 4.7 ESE 20 28 11 15 1018.3 1015.7 0.0
17/01:00am 23.1 20.9 14.9 60 5.0 ESE 20 30 11 16 1018.6 1015.9 0.0
17/12:30am 23.5 21.5 15.0 59 5.2 ESE 19 28 10 15 1018.7 1016.0 0.0
17/12:00am 23.8 21.8 15.0 57 5.3 ESE 19 28 10 15 1018.8 1016.1 0.0
 
Date/Time
WST
Temp
°C
App
Temp
°C
Dew
Point
Rel
Hum
%
Delta-T
°C
Wind Press
QNH
hPa
Press
MSL
hPa
Rain
since 9 am
mm
Dir
 
Spd
km/h
Gust
km/h
Spd
kts
Gust
kts
16/11:30pm 24.9 21.6 15.0 54 6.0 SE 26 44 14 24 1018.6 1015.9 0.0
16/11:00pm 25.8 22.5 14.9 51 6.7 SE 26 39 14 21 1018.7 1016.0 0.0
16/10:30pm 26.2 23.1 14.6 48 7.1 SE 24 35 13 19 1018.7 1016.0 0.0

Other Formats:

Comma delimited format used in spreadsheet applications
http://www.bom.gov.au/fwo/IDW60801/IDW60801.94316.axf

JavaScript Object Notation format (JSON) in row-major order
http://www.bom.gov.au/fwo/IDW60801/IDW60801.94316.json